Time;durP1;ratioP1;P1;durP2;ratioP2;P2;SDS_P1;SDS_P2;PMS_P1;PMS_P2;Temp;Humidity;BMP_temperature;BMP_pressure;BME280_temperature;BME280_humidity;BME280_pressure;Samples;Min_cycle;Max_cycle;Signal;HPM_P1;HPM_P2
2022/04/30 15:51:47;;;;;;;4.15;2.38;;;21.40;54.30;;;;;;5076470;27;20433;-78
2022/04/30 15:54:14;;;;;;;3.65;2.05;;;24.60;45.20;;;;;;5057559;28;20028;-78
2022/04/30 15:56:40;;;;;;;3.28;2.60;;;26.30;42.20;;;;;;5057106;28;20024;-79
2022/04/30 15:59:07;;;;;;;3.85;2.50;;;25.90;42.20;;;;;;5057222;28;20719;-76
2022/04/30 16:01:32;;;;;;;4.88;2.83;;;26.40;41.30;;;;;;5074788;28;20078;-78
2022/04/30 16:03:58;;;;;;;2.53;2.03;;;26.60;40.80;;;;;;5056318;28;20028;-79
2022/04/30 16:06:24;;;;;;;2.60;2.08;;;27.20;40.60;;;;;;5075451;28;20445;-78
2022/04/30 16:08:52;;;;;;;3.20;2.17;;;27.60;40.20;;;;;;5074702;28;20019;-78
2022/04/30 16:11:18;;;;;;;4.40;2.60;;;27.70;39.70;;;;;;5074241;28;20093;-78
2022/04/30 16:13:44;;;;;;;2.25;2.05;;;27.20;40.00;;;;;;5074818;28;20029;-78
2022/04/30 16:16:11;;;;;;;3.38;2.55;;;26.80;41.00;;;;;;5075005;28;20020;-78
2022/04/30 16:18:36;;;;;;;3.10;2.40;;;25.90;41.20;;;;;;5056463;28;20025;-77
2022/04/30 16:21:15;;;;;;;4.55;2.38;;;25.30;42.90;;;;;;5074627;28;20659;-79
2022/04/30 16:23:43;;;;;;;4.60;2.30;;;26.00;43.30;;;;;;5075253;28;20173;-82
2022/04/30 16:26:19;;;;;;;8.95;3.05;;;24.40;45.00;;;;;;5075062;28;20025;-83
2022/04/30 16:28:50;;;;;;;3.78;2.85;;;23.70;46.50;;;;;;5056525;28;20028;-77
2022/04/30 16:31:16;;;;;;;3.35;2.10;;;24.00;46.20;;;;;;5074142;28;20115;-80
2022/04/30 16:33:42;;;;;;;3.92;2.58;;;24.80;44.70;;;;;;5074077;28;20095;-81
2022/04/30 16:36:11;;;;;;;3.13;2.40;;;23.10;46.50;;;;;;5056003;28;20020;-82
2022/04/30 16:38:37;;;;;;;2.72;2.42;;;22.60;49.90;;;;;;5074410;28;20059;-80
2022/04/30 16:41:03;;;;;;;4.63;2.50;;;21.80;49.70;;;;;;5074335;28;20111;-82
2022/04/30 16:43:29;;;;;;;4.57;2.80;;;21.40;50.40;;;;;;5074289;28;20017;-82
2022/04/30 16:45:57;;;;;;;3.92;2.83;;;20.80;51.30;;;;;;5074613;28;20674;-79
2022/04/30 16:48:23;;;;;;;4.47;2.55;;;20.60;50.80;;;;;;5074795;28;20028;-78
2022/04/30 16:53:36;;;;;;;4.43;3.03;;;20.00;52.40;;;;;;5074959;28;20032;-83
2022/04/30 16:58:50;;;;;;;3.50;2.65;;;19.50;54.20;;;;;;5075769;28;20039;-82
2022/04/30 17:01:15;;;;;;;4.82;3.10;;;19.40;54.80;;;;;;5058320;28;20063;-80
2022/04/30 17:03:41;;;;;;;4.25;2.90;;;18.50;55.20;;;;;;5065768;28;20095;-83
2022/04/30 17:06:29;;;;;;;7.10;3.20;;;16.10;54.40;;;;;;5062516;28;20105;-84
2022/04/30 17:09:07;;;;;;;4.88;3.28;;;18.90;57.00;;;;;;5044636;28;20021;-80
2022/04/30 17:11:54;;;;;;;4.35;3.17;;;18.60;58.70;;;;;;5204101;22;20082;-81
2022/04/30 17:14:25;;;;;;;5.85;3.30;;;17.00;60.50;;;;;;4994413;28;20022;-80
2022/04/30 17:17:09;;;;;;;6.30;3.47;;;18.40;62.00;;;;;;4998917;28;20044;-81
2022/04/30 17:19:36;;;;;;;6.53;3.65;;;18.40;63.30;;;;;;5000941;28;20017;-79
2022/04/30 17:24:53;;;;;;;9.85;3.65;;;18.10;63.10;;;;;;5007781;28;20030;-78
2022/04/30 17:27:19;;;;;;;9.07;3.53;;;18.00;63.60;;;;;;4990908;28;20117;-80
2022/04/30 17:29:46;;;;;;;7.68;3.53;;;18.10;64.30;;;;;;5009653;28;20048;-78
2022/04/30 17:37:58;;;;;;;4.80;3.13;;;17.60;65.50;;;;;;5019195;28;20052;-79
2022/04/30 17:40:26;;;;;;;7.18;3.92;;;17.40;66.60;;;;;;5017804;28;20026;-82
2022/04/30 17:42:52;;;;;;;7.88;3.42;;;17.30;67.20;;;;;;5019245;28;20088;-79
2022/04/30 17:45:20;;;;;;;4.47;3.08;;;17.20;68.20;;;;;;5020436;28;20101;-79
2022/04/30 17:47:47;;;;;;;5.97;3.67;;;17.10;68.00;;;;;;5019401;28;20078;-80
2022/04/30 17:50:13;;;;;;;10.80;4.10;;;17.10;68.70;;;;;;5016956;28;20057;-80
2022/04/30 17:52:48;;;;;;;4.80;3.65;;;16.90;69.40;;;;;;4993823;28;20022;-79
2022/04/30 17:55:27;;;;;;;5.65;4.07;;;16.70;70.30;;;;;;5006772;28;20030;-79
2022/04/30 17:57:58;;;;;;;6.80;3.70;;;16.70;70.80;;;;;;5010805;28;20614;-80
2022/04/30 18:00:43;;;;;;;6.40;4.00;;;16.60;71.10;;;;;;5000355;28;20034;-79
2022/04/30 18:03:15;;;;;;;5.15;3.42;;;16.60;70.70;;;;;;5008034;28;20100;-79
2022/04/30 18:05:43;;;;;;;5.40;3.50;;;18.10;71.90;;;;;;4993357;28;20057;-81
2022/04/30 18:08:09;;;;;;;6.18;3.60;;;16.40;71.70;;;;;;4990968;28;20033;-80
2022/04/30 18:10:36;;;;;;;5.90;3.85;;;16.30;71.90;;;;;;5008177;28;20049;-79
2022/04/30 18:13:08;;;;;;;7.07;3.28;;;12.90;70.60;;;;;;5005000;28;20108;-78
2022/04/30 18:15:36;;;;;;;8.32;3.80;;;16.20;72.90;;;;;;5006475;28;20700;-82
2022/04/30 18:18:04;;;;;;;7.15;3.28;;;16.10;72.70;;;;;;5005660;28;20030;-79
2022/04/30 18:20:37;;;;;;;5.57;3.45;;;16.10;73.20;;;;;;5010188;28;20022;-79
2022/04/30 18:23:06;;;;;;;4.82;3.22;;;16.00;73.20;;;;;;5009072;28;20243;-79
2022/04/30 18:25:34;;;;;;;5.10;3.22;;;15.90;73.80;;;;;;5009745;28;20020;-80
2022/04/30 18:28:01;;;;;;;6.90;4.00;;;15.90;74.20;;;;;;5013868;28;20013;-82
2022/04/30 18:30:40;;;;;;;5.53;3.42;;;15.80;74.40;;;;;;5015553;28;20026;-79
2022/04/30 18:33:06;;;;;;;4.82;2.90;;;16.60;75.70;;;;;;5014777;28;20675;-79
2022/04/30 18:35:41;;;;;;;5.80;3.35;;;17.10;76.80;;;;;;5015720;28;20030;-79
2022/04/30 18:38:16;;;;;;;6.85;3.65;;;15.70;76.10;;;;;;5017656;28;20040;-82
2022/04/30 18:43:12;;;;;;;6.22;3.05;;;15.60;76.70;;;;;;5035029;23;20416;-79
2022/04/30 18:45:40;;;;;;;5.68;3.50;;;15.60;77.60;;;;;;5014650;28;20032;-77
2022/04/30 18:48:07;;;;;;;6.20;3.92;;;16.20;78.80;;;;;;5014342;28;20101;-78
2022/04/30 18:50:32;;;;;;;7.03;3.45;;;15.50;78.50;;;;;;4990157;28;20048;-78
2022/04/30 19:01:15;;;;;;;5.75;3.78;;;15.40;80.50;;;;;;5040123;28;20041;-79
2022/04/30 19:03:55;;;;;;;4.80;3.45;;;15.40;80.70;;;;;;5026610;28;20144;-81
2022/04/30 19:06:29;;;;;;;8.48;4.95;;;15.70;80.70;;;;;;5025085;28;20726;-78
2022/04/30 19:09:27;;;;;;;6.45;4.03;;;16.20;82.90;;;;;;5047768;28;20575;-80
2022/04/30 19:11:53;;;;;;;6.35;3.55;;;15.80;82.30;;;;;;5009522;28;20053;-80
2022/04/30 19:14:18;;;;;;;3.40;2.92;;;15.30;82.80;;;;;;5009207;28;20030;-80
2022/04/30 19:17:26;;;;;;;5.05;3.40;;;15.30;83.10;;;;;;5003550;28;20022;-80
2022/04/30 19:19:55;;;;;;;4.22;3.20;;;15.30;82.80;;;;;;4990285;28;20042;-79
2022/04/30 19:22:39;;;;;;;7.78;3.60;;;12.60;81.90;;;;;;5005642;28;20105;-78
2022/04/30 19:25:56;;;;;;;6.20;3.47;;;15.00;83.80;;;;;;5003319;28;20038;-81
2022/04/30 19:39:41;;;;;;;;;;;;;;;;;;;;;
2022/04/30 19:42:09;;;;;;;7.20;3.70;;;19.10;88.50;;;;;;5024880;28;20040;-79
2022/04/30 19:44:35;;;;;;;11.68;3.70;;;14.80;87.10;;;;;;5025062;28;20036;-79
2022/04/30 19:47:03;;;;;;;5.30;3.40;;;14.70;87.20;;;;;;5009418;28;20065;-78
2022/04/30 19:49:35;;;;;;;5.75;3.60;;;14.70;87.30;;;;;;5025613;28;20024;-79
2022/04/30 19:52:24;;;;;;;9.30;5.13;;;17.90;90.20;;;;;;5025210;28;20099;-79
2022/04/30 19:55:00;;;;;;;7.82;4.47;;;14.60;88.80;;;;;;5010337;28;20028;-79
2022/04/30 19:57:28;;;;;;;4.93;3.60;;;15.90;88.90;;;;;;5025406;28;20026;-78
2022/04/30 19:59:57;;;;;;;5.70;3.65;;;14.40;89.20;;;;;;5032806;28;20028;-78
2022/04/30 20:02:27;;;;;;;5.13;3.70;;;14.50;88.80;;;;;;5039666;28;20010;-79
2022/04/30 20:05:16;;;;;;;6.00;3.47;;;14.40;89.50;;;;;;5112782;23;20068;-78
2022/04/30 20:07:45;;;;;;;6.97;3.95;;;14.40;89.80;;;;;;4966472;28;20051;-79
2022/04/30 20:18:36;;;;;;;7.25;4.28;;;14.10;90.60;;;;;;4964592;28;20034;-78
2022/04/30 20:21:12;;;;;;;7.47;4.10;;;14.00;91.00;;;;;;4948907;28;20046;-79
2022/04/30 20:23:44;;;;;;;6.88;4.57;;;12.10;90.50;;;;;;4950255;28;20085;-78
2022/04/30 20:26:21;;;;;;;6.60;3.58;;;13.90;92.00;;;;;;4967896;28;20027;-78
2022/04/30 20:28:47;;;;;;;6.10;4.40;;;15.20;91.50;;;;;;4965391;28;20023;-78
2022/04/30 20:37:21;;;;;;;9.80;4.70;;;14.00;91.30;;;;;;4967129;28;20057;-78
2022/04/30 20:39:47;;;;;;;9.75;4.97;;;13.50;91.20;;;;;;4927998;29;20040;-79
2022/04/30 20:42:22;;;;;;;10.18;4.90;;;13.90;91.60;;;;;;4931698;29;20047;-79
2022/04/30 20:44:49;;;;;;;11.90;5.77;;;13.90;92.10;;;;;;5009630;22;20045;-80
2022/04/30 20:47:20;;;;;;;9.88;5.40;;;14.60;92.70;;;;;;5052843;28;20051;-81
2022/04/30 20:49:52;;;;;;;10.57;5.00;;;13.80;92.40;;;;;;5024892;28;20041;-78
2022/04/30 20:52:34;;;;;;;9.20;4.88;;;13.70;92.60;;;;;;5047780;28;20096;-80
2022/04/30 20:55:32;;;;;;;9.38;5.00;;;13.70;92.10;;;;;;5049155;28;20010;-78
2022/04/30 21:00:37;;;;;;;10.50;5.28;;;13.50;92.90;;;;;;5171701;22;20052;-79
2022/04/30 21:07:13;;;;;;;10.40;4.68;;;13.20;92.70;;;;;;5055979;22;20055;-78
2022/04/30 21:09:52;;;;;;;10.52;4.47;;;11.80;92.50;;;;;;5034662;28;20021;-77
2022/04/30 21:16:12;;;;;;;7.88;4.18;;;10.90;92.90;;;;;;4893024;29;20051;-78
2022/04/30 21:18:39;;;;;;;8.80;4.28;;;13.60;93.90;;;;;;4894764;29;20087;-79
2022/04/30 21:21:17;;;;;;;8.93;5.35;;;13.40;93.70;;;;;;4895256;29;20031;-79
2022/04/30 21:23:44;;;;;;;12.63;5.80;;;13.40;93.90;;;;;;5059478;22;20153;-79
2022/04/30 21:26:12;;;;;;;7.78;4.95;;;13.40;93.70;;;;;;5068930;22;20150;-79
2022/04/30 21:28:44;;;;;;;6.35;4.40;;;9.90;93.10;;;;;;5029779;28;20111;-78
2022/04/30 21:31:15;;;;;;;7.80;4.45;;;13.30;94.20;;;;;;5038834;28;20036;-78
2022/04/30 21:33:41;;;;;;;8.48;4.68;;;13.30;94.50;;;;;;5028910;28;20029;-77
2022/04/30 21:36:08;;;;;;;7.43;4.40;;;13.30;94.90;;;;;;5042646;28;20108;-78
2022/04/30 21:38:51;;;;;;;10.57;4.80;;;13.80;94.90;;;;;;5242794;22;20134;-78
2022/04/30 21:44:04;;;;;;;8.52;4.03;;;13.30;95.00;;;;;;5055548;28;20106;-78
2022/04/30 21:46:38;;;;;;;10.07;4.63;;;10.20;94.60;;;;;;5057170;28;20059;-79
2022/04/30 21:51:43;;;;;;;12.10;4.32;;;13.20;95.40;;;;;;4666547;26;20057;-77
2022/04/30 21:54:15;;;;;;;7.63;4.28;;;13.20;95.70;;;;;;5043131;23;20045;-77
2022/04/30 22:01:00;;;;;;;9.43;5.03;;;13.70;95.80;;;;;;5118724;22;20087;-79
2022/04/30 22:26:18;;;;;;;6.75;4.22;;;13.10;96.60;;;;;;5005824;28;20049;-81
